Time;durP1;ratioP1;P1;durP2;ratioP2;P2;SDS_P1;SDS_P2;PMS_P1;PMS_P2;Temp;Humidity;BMP_temperature;BMP_pressure;BME280_temperature;BME280_humidity;BME280_pressure;Samples;Min_cycle;Max_cycle;Signal;HPM_P1;HPM_P2
2022/08/09 00:02:07;;;;;;;0.93;0.50;;;16.60;93.10;;;;;;5094916;28;20800;-69
2022/08/09 00:04:34;;;;;;;1.00;1.00;;;16.50;93.10;;;;;;5094808;28;20425;-69
2022/08/09 00:07:00;;;;;;;2.00;0.70;;;16.50;93.30;;;;;;5094743;28;20494;-67
2022/08/09 00:09:26;;;;;;;0.70;0.70;;;16.50;93.10;;;;;;5094568;28;20818;-68
2022/08/09 00:11:53;;;;;;;1.40;1.30;;;16.50;93.30;;;;;;5094542;28;20440;-67
2022/08/09 00:14:19;;;;;;;0.53;0.53;;;16.30;93.20;;;;;;5094667;28;20199;-69
2022/08/09 00:16:45;;;;;;;0.60;0.60;;;16.40;93.30;;;;;;5094450;28;20790;-69
2022/08/09 00:19:11;;;;;;;0.90;0.77;;;16.50;92.90;;;;;;5094428;28;20399;-68
2022/08/09 00:21:37;;;;;;;0.93;0.80;;;16.50;92.60;;;;;;5094470;28;20665;-67
2022/08/09 00:24:03;;;;;;;0.60;0.60;;;16.60;92.60;;;;;;5094457;28;20176;-70
2022/08/09 00:26:30;;;;;;;1.27;1.17;;;16.70;93.00;;;;;;5076066;28;20806;-68
2022/08/09 00:28:57;;;;;;;0.40;0.40;;;16.80;92.30;;;;;;5094284;28;20414;-68
2022/08/09 00:31:24;;;;;;;1.17;1.07;;;16.90;92.40;;;;;;5094166;28;20766;-69
2022/08/09 00:33:51;;;;;;;1.13;1.03;;;16.90;92.00;;;;;;5094115;28;20450;-68
2022/08/09 00:36:16;;;;;;;1.30;1.03;;;16.90;92.10;;;;;;5093607;28;20425;-67
2022/08/09 00:38:43;;;;;;;0.57;0.57;;;16.90;92.40;;;;;;5094023;28;20397;-68
2022/08/09 00:41:08;;;;;;;0.50;0.50;;;16.80;92.50;;;;;;5094271;28;20165;-69
2022/08/09 00:43:36;;;;;;;0.50;0.50;;;16.80;92.50;;;;;;5094213;28;20410;-69
2022/08/09 00:46:04;;;;;;;0.80;0.80;;;16.60;92.50;;;;;;5093871;28;20216;-69
2022/08/09 00:48:30;;;;;;;0.83;0.83;;;16.60;92.70;;;;;;5093840;28;20407;-68
2022/08/09 00:50:56;;;;;;;0.87;0.87;;;16.60;92.70;;;;;;5094141;28;20840;-69
2022/08/09 00:53:22;;;;;;;0.60;0.60;;;16.70;92.70;;;;;;5093845;28;20402;-69
2022/08/09 00:55:48;;;;;;;0.70;0.70;;;16.70;92.80;;;;;;5093743;28;20422;-70
2022/08/09 00:58:13;;;;;;;0.70;0.70;;;16.60;93.00;;;;;;5093740;28;20406;-67
2022/08/09 01:00:42;;;;;;;1.00;1.00;;;16.50;93.00;;;;;;5093796;28;20172;-69
2022/08/09 01:03:18;;;;;;;0.67;0.53;;;16.40;93.20;;;;;;5093611;28;20602;-70
2022/08/09 01:05:57;;;;;;;1.03;1.03;;;16.30;93.50;;;;;;5093722;28;20429;-68
2022/08/09 01:08:34;;;;;;;0.70;0.70;;;16.20;93.70;;;;;;5093576;28;20411;-68
2022/08/09 01:11:29;;;;;;;0.93;0.93;;;16.20;93.70;;;;;;5093903;28;20743;-68
2022/08/09 01:14:02;;;;;;;1.10;1.10;;;16.00;93.80;;;;;;5093744;28;20442;-68
2022/08/09 01:16:38;;;;;;;0.40;0.40;;;16.10;93.80;;;;;;5093479;28;20415;-69
2022/08/09 01:19:38;;;;;;;0.60;0.60;;;16.10;93.80;;;;;;5093359;28;20410;-69
2022/08/09 01:22:44;;;;;;;0.70;0.70;;;16.20;93.20;;;;;;5093777;28;20529;-69
2022/08/09 01:25:41;;;;;;;0.80;0.80;;;16.30;92.50;;;;;;5093506;28;20782;-69
2022/08/09 01:28:08;;;;;;;1.00;0.90;;;16.40;92.30;;;;;;5093259;28;20391;-69
2022/08/09 01:30:36;;;;;;;1.43;1.33;;;16.40;92.00;;;;;;5093497;28;20398;-69
2022/08/09 01:33:06;;;;;;;0.73;0.73;;;16.50;91.70;;;;;;5075394;28;20405;-67
2022/08/09 01:35:47;;;;;;;0.67;0.67;;;16.60;91.60;;;;;;5093644;28;20434;-68
2022/08/09 01:38:18;;;;;;;0.53;0.53;;;16.70;91.70;;;;;;5093181;28;20394;-68
2022/08/09 01:40:51;;;;;;;0.97;0.77;;;16.70;91.60;;;;;;5093584;28;20387;-69
2022/08/09 01:43:18;;;;;;;0.80;0.80;;;16.80;91.90;;;;;;5093694;28;20390;-68
2022/08/09 01:45:46;;;;;;;0.80;0.80;;;16.80;91.90;;;;;;5075120;28;20935;-68
2022/08/09 01:48:14;;;;;;;0.60;0.60;;;16.80;92.10;;;;;;5094764;28;20494;-68
2022/08/09 01:50:41;;;;;;;2.03;1.93;;;16.60;92.00;;;;;;5097478;28;20751;-68
2022/08/09 01:53:08;;;;;;;0.93;0.80;;;16.50;92.00;;;;;;5097120;28;20390;-68
2022/08/09 01:55:35;;;;;;;0.80;0.80;;;16.50;92.10;;;;;;5097276;28;20428;-69
2022/08/09 01:58:05;;;;;;;1.20;1.20;;;16.50;92.20;;;;;;5097036;28;20956;-69
2022/08/09 02:00:32;;;;;;;1.00;1.00;;;16.40;92.60;;;;;;5097311;28;20505;-68
2022/08/09 02:02:59;;;;;;;0.70;0.70;;;16.30;92.60;;;;;;5097114;28;20476;-69
2022/08/09 02:05:26;;;;;;;0.97;0.83;;;16.30;92.70;;;;;;5097299;28;20430;-67
2022/08/09 02:08:13;;;;;;;0.77;0.70;;;16.20;93.20;;;;;;5097032;28;20848;-69
2022/08/09 02:10:44;;;;;;;1.07;0.67;;;16.00;93.30;;;;;;5097187;28;20969;-68
2022/08/09 02:13:11;;;;;;;0.60;0.60;;;16.00;93.50;;;;;;5096928;28;20405;-70
2022/08/09 02:15:48;;;;;;;0.70;0.70;;;15.90;93.60;;;;;;5096810;28;20498;-67
2022/08/09 02:18:21;;;;;;;1.57;1.53;;;15.90;93.40;;;;;;5097097;28;20511;-69
2022/08/09 02:20:51;;;;;;;0.97;0.97;;;15.90;93.70;;;;;;5096782;28;20413;-67
2022/08/09 02:23:26;;;;;;;1.10;0.80;;;15.90;93.60;;;;;;5096782;28;20418;-69
2022/08/09 02:25:57;;;;;;;0.90;0.60;;;15.90;93.80;;;;;;5096848;28;20455;-68
2022/08/09 02:28:33;;;;;;;1.43;0.93;;;15.90;93.70;;;;;;5096621;28;20391;-70
2022/08/09 02:31:09;;;;;;;4.50;1.17;;;15.90;93.90;;;;;;5096635;28;20449;-68
2022/08/09 02:33:39;;;;;;;0.60;0.60;;;15.80;93.90;;;;;;5078416;28;20445;-69
2022/08/09 02:36:08;;;;;;;1.37;0.97;;;15.70;94.10;;;;;;5078184;28;20515;-68
2022/08/09 02:38:44;;;;;;;0.80;0.80;;;15.80;94.30;;;;;;5096181;28;20768;-69
2022/08/09 02:41:14;;;;;;;0.70;0.70;;;15.80;94.10;;;;;;5096672;28;20407;-67
2022/08/09 02:43:44;;;;;;;0.70;0.60;;;15.80;94.20;;;;;;5096693;28;20411;-68
2022/08/09 02:46:12;;;;;;;0.67;0.67;;;15.80;94.10;;;;;;5096194;28;20434;-69
2022/08/09 02:48:39;;;;;;;0.93;0.93;;;15.80;94.10;;;;;;5096096;28;20417;-69
2022/08/09 02:51:10;;;;;;;1.63;1.00;;;15.80;94.20;;;;;;5096248;28;20432;-69
2022/08/09 02:53:45;;;;;;;0.83;0.83;;;15.80;94.10;;;;;;5096069;28;20449;-67
2022/08/09 02:56:12;;;;;;;4.53;0.80;;;15.80;94.10;;;;;;5096135;28;20416;-68
2022/08/09 02:58:40;;;;;;;1.43;1.20;;;15.70;94.30;;;;;;5095363;28;20412;-69
2022/08/09 03:01:07;;;;;;;1.00;1.00;;;15.60;94.30;;;;;;5096168;28;20402;-69
2022/08/09 03:03:35;;;;;;;1.23;1.13;;;15.70;94.20;;;;;;5095744;28;20516;-69
2022/08/09 03:06:03;;;;;;;1.00;1.00;;;15.70;94.30;;;;;;5095813;28;20441;-69
2022/08/09 03:08:30;;;;;;;1.13;1.03;;;15.70;93.90;;;;;;5095787;28;20416;-68
2022/08/09 03:10:56;;;;;;;0.70;0.70;;;15.70;93.60;;;;;;5096035;28;20768;-69
2022/08/09 03:13:24;;;;;;;1.27;1.07;;;15.80;93.60;;;;;;5077413;28;21002;-68
2022/08/09 03:15:51;;;;;;;0.80;0.80;;;15.70;93.60;;;;;;5095656;28;20430;-68
2022/08/09 03:18:18;;;;;;;0.73;0.73;;;15.80;94.00;;;;;;5095559;28;20414;-69
2022/08/09 03:20:44;;;;;;;0.80;0.50;;;15.80;93.10;;;;;;5095796;28;20407;-68
2022/08/09 03:23:11;;;;;;;1.10;1.10;;;15.80;93.60;;;;;;5095609;28;20763;-69
2022/08/09 03:25:41;;;;;;;1.07;0.97;;;15.80;93.20;;;;;;5095846;28;20917;-69
2022/08/09 03:28:07;;;;;;;0.70;0.70;;;15.80;93.40;;;;;;5095359;28;20404;-68
2022/08/09 03:30:33;;;;;;;0.63;0.60;;;15.90;93.60;;;;;;5095548;28;20433;-68
2022/08/09 03:33:03;;;;;;;0.60;0.60;;;15.80;92.50;;;;;;5095354;28;20402;-67
2022/08/09 03:35:29;;;;;;;0.70;0.70;;;15.80;92.50;;;;;;5095188;28;20466;-69
2022/08/09 03:37:55;;;;;;;0.97;0.90;;;15.80;92.60;;;;;;5095247;28;20764;-67
2022/08/09 03:40:20;;;;;;;0.57;0.57;;;15.80;92.50;;;;;;5095522;28;20403;-69
2022/08/09 03:42:46;;;;;;;0.70;0.70;;;15.80;92.60;;;;;;5095367;28;20407;-67
2022/08/09 03:45:11;;;;;;;0.50;0.50;;;15.80;92.70;;;;;;5095038;28;20197;-68
2022/08/09 03:47:37;;;;;;;0.53;0.53;;;15.70;92.70;;;;;;5095187;28;20173;-68
2022/08/09 03:50:07;;;;;;;1.20;1.20;;;15.60;92.90;;;;;;5095113;28;20537;-68
2022/08/09 03:52:35;;;;;;;0.80;0.80;;;15.50;93.70;;;;;;5095278;28;20224;-69
2022/08/09 03:55:03;;;;;;;0.50;0.50;;;15.40;92.90;;;;;;5094744;28;20459;-69
2022/08/09 03:57:29;;;;;;;0.70;0.70;;;15.40;93.10;;;;;;5095032;28;20399;-68
2022/08/09 03:59:55;;;;;;;1.70;1.17;;;15.30;93.20;;;;;;5094811;28;20461;-68
2022/08/09 04:02:23;;;;;;;0.93;0.93;;;15.30;93.20;;;;;;5095045;28;20422;-69
2022/08/09 04:04:48;;;;;;;4.80;0.90;;;15.40;93.00;;;;;;5094717;28;20917;-67
2022/08/09 04:07:15;;;;;;;1.30;1.00;;;15.40;93.10;;;;;;5094714;28;20518;-68
2022/08/09 04:09:41;;;;;;;0.60;0.60;;;15.40;92.60;;;;;;5094352;28;20175;-69
2022/08/09 04:12:09;;;;;;;0.90;0.90;;;15.50;91.90;;;;;;5094053;28;20399;-69
2022/08/09 04:14:38;;;;;;;1.13;1.13;;;15.60;91.50;;;;;;5094515;28;20195;-68
2022/08/09 04:17:04;;;;;;;1.23;0.97;;;15.80;91.10;;;;;;5094476;28;20415;-68
2022/08/09 04:19:30;;;;;;;0.90;0.90;;;15.90;91.30;;;;;;5094369;28;20485;-69
2022/08/09 04:21:56;;;;;;;1.30;1.20;;;16.10;90.50;;;;;;5094529;28;20431;-69
2022/08/09 04:24:22;;;;;;;1.30;1.30;;;16.20;90.50;;;;;;5094607;28;20528;-67
2022/08/09 04:26:47;;;;;;;1.23;1.23;;;16.30;90.20;;;;;;5094287;28;20194;-70
2022/08/09 04:29:13;;;;;;;0.50;0.50;;;16.40;90.30;;;;;;5094113;28;20173;-68
2022/08/09 04:31:39;;;;;;;0.70;0.70;;;16.50;89.90;;;;;;5076124;28;20217;-69
2022/08/09 04:34:05;;;;;;;0.70;0.70;;;16.70;89.50;;;;;;5094375;28;20967;-69
2022/08/09 04:36:31;;;;;;;0.67;0.67;;;16.80;87.80;;;;;;5094151;28;20208;-67
2022/08/09 04:38:59;;;;;;;0.90;0.60;;;16.90;89.30;;;;;;5093947;28;20561;-69
2022/08/09 04:41:25;;;;;;;0.57;0.57;;;17.00;87.90;;;;;;5094093;28;20410;-69
2022/08/09 04:43:52;;;;;;;0.60;0.60;;;17.00;87.90;;;;;;5094287;28;20468;-69
2022/08/09 04:46:17;;;;;;;0.50;0.50;;;17.10;86.50;;;;;;5094171;28;20419;-69
2022/08/09 04:48:43;;;;;;;0.60;0.60;;;17.40;86.20;;;;;;5094055;28;20405;-68
2022/08/09 04:51:09;;;;;;;0.60;0.60;;;17.40;86.20;;;;;;5094089;28;20169;-67
2022/08/09 04:53:35;;;;;;;0.90;0.90;;;17.60;86.40;;;;;;5094009;28;20216;-68
2022/08/09 04:56:00;;;;;;;0.70;0.70;;;17.60;85.80;;;;;;5093780;28;20422;-69
2022/08/09 04:58:27;;;;;;;0.80;0.80;;;17.60;84.60;;;;;;5093553;28;20176;-67
2022/08/09 05:00:54;;;;;;;0.80;0.80;;;17.80;83.70;;;;;;5093872;28;20681;-68
2022/08/09 05:03:19;;;;;;;0.57;0.57;;;17.90;84.20;;;;;;5093687;28;20779;-69
2022/08/09 05:05:46;;;;;;;0.70;0.70;;;18.00;84.90;;;;;;5075441;28;20435;-68
2022/08/09 05:08:12;;;;;;;1.20;0.97;;;18.20;83.10;;;;;;5093541;28;20637;-69
2022/08/09 05:10:38;;;;;;;0.60;0.60;;;18.70;81.50;;;;;;5093840;28;20414;-69
2022/08/09 05:13:04;;;;;;;0.80;0.57;;;19.10;80.60;;;;;;5093652;28;20165;-69
2022/08/09 05:15:30;;;;;;;0.73;0.73;;;19.40;79.50;;;;;;5075297;28;20300;-69
2022/08/09 05:17:55;;;;;;;0.80;0.80;;;19.70;77.60;;;;;;5075315;28;20202;-68
2022/08/09 05:20:21;;;;;;;0.50;0.50;;;20.00;77.90;;;;;;5093668;28;20166;-69
2022/08/09 05:22:49;;;;;;;1.03;1.03;;;20.20;76.10;;;;;;5093457;28;20172;-68
2022/08/09 05:25:15;;;;;;;0.57;0.43;;;20.30;75.40;;;;;;5093623;28;20239;-69
2022/08/09 05:27:41;;;;;;;0.40;0.40;;;20.40;75.20;;;;;;5093280;28;20755;-68
2022/08/09 05:30:07;;;;;;;0.60;0.60;;;20.40;75.10;;;;;;5093489;28;20414;-68
2022/08/09 05:32:34;;;;;;;0.53;0.53;;;20.50;74.90;;;;;;5093771;28;20916;-70
2022/08/09 05:34:59;;;;;;;0.50;0.50;;;20.30;73.20;;;;;;5093303;28;20465;-68
2022/08/09 05:37:25;;;;;;;0.50;0.50;;;20.40;73.80;;;;;;5093398;28;20168;-68
2022/08/09 05:39:51;;;;;;;0.50;0.50;;;20.60;75.60;;;;;;5093248;28;20302;-69
2022/08/09 05:42:17;;;;;;;0.50;0.50;;;20.80;71.90;;;;;;5093243;28;20306;-67
2022/08/09 05:44:42;;;;;;;1.30;1.30;;;21.00;72.90;;;;;;5093349;28;20505;-69
2022/08/09 05:47:08;;;;;;;0.70;0.70;;;21.10;71.70;;;;;;5093565;28;20402;-69
2022/08/09 05:49:34;;;;;;;0.60;0.60;;;21.20;71.60;;;;;;5093322;28;20255;-70
2022/08/09 05:51:59;;;;;;;0.50;0.50;;;21.30;69.60;;;;;;5093514;28;20165;-70
2022/08/09 05:54:25;;;;;;;0.50;0.50;;;21.60;70.00;;;;;;5093376;28;20210;-69
2022/08/09 05:56:51;;;;;;;0.50;0.50;;;21.80;68.30;;;;;;5093208;28;20288;-68
2022/08/09 05:59:18;;;;;;;0.57;0.57;;;21.90;68.30;;;;;;5093198;28;20253;-69
2022/08/09 06:01:43;;;;;;;0.40;0.40;;;21.90;67.40;;;;;;5093093;28;20533;-68
2022/08/09 06:04:09;;;;;;;0.70;0.70;;;21.70;67.40;;;;;;5093263;28;20429;-69
2022/08/09 06:06:35;;;;;;;0.57;0.57;;;21.60;66.70;;;;;;5093200;28;20228;-69
2022/08/09 06:09:01;;;;;;;0.67;0.67;;;21.50;68.80;;;;;;5093014;28;20169;-69
2022/08/09 06:11:26;;;;;;;0.50;0.50;;;21.40;68.90;;;;;;5093409;28;20174;-68
2022/08/09 06:13:52;;;;;;;1.30;1.20;;;21.80;68.10;;;;;;5093098;28;20450;-69
2022/08/09 06:16:17;;;;;;;0.50;0.50;;;21.90;66.40;;;;;;5093613;28;20562;-68
2022/08/09 06:18:43;;;;;;;0.60;0.60;;;22.10;66.40;;;;;;5092920;28;20167;-69
2022/08/09 06:21:09;;;;;;;0.83;0.83;;;22.30;65.20;;;;;;5093262;28;20167;-68
2022/08/09 06:23:34;;;;;;;0.63;0.63;;;22.40;64.30;;;;;;5093207;28;20170;-67
2022/08/09 06:26:00;;;;;;;0.53;0.53;;;22.50;64.30;;;;;;5092971;28;20184;-69
2022/08/09 06:28:26;;;;;;;0.80;0.70;;;22.50;63.60;;;;;;5093004;28;20203;-68
2022/08/09 06:30:51;;;;;;;0.53;0.53;;;22.30;64.40;;;;;;5093239;28;20166;-69
2022/08/09 06:33:17;;;;;;;0.77;0.77;;;22.30;63.80;;;;;;5093013;28;20170;-70
2022/08/09 06:35:42;;;;;;;0.50;0.50;;;22.20;63.40;;;;;;5096728;28;20191;-69
2022/08/09 06:38:08;;;;;;;0.40;0.40;;;22.10;64.20;;;;;;5096436;28;20250;-69
2022/08/09 06:40:34;;;;;;;0.63;0.50;;;22.10;64.30;;;;;;5096756;28;20165;-69
2022/08/09 06:43:00;;;;;;;0.53;0.53;;;22.10;65.30;;;;;;5096677;28;20197;-68
2022/08/09 06:45:26;;;;;;;1.13;0.50;;;22.20;64.30;;;;;;5096410;28;20270;-69
2022/08/09 06:47:52;;;;;;;0.50;0.50;;;22.20;63.00;;;;;;5096473;28;20494;-69
2022/08/09 06:50:18;;;;;;;0.40;0.40;;;22.80;63.00;;;;;;5096404;28;20486;-69
2022/08/09 06:52:46;;;;;;;0.60;0.60;;;23.70;61.20;;;;;;5096474;28;20242;-69
2022/08/09 06:55:19;;;;;;;0.60;0.60;;;24.50;59.60;;;;;;5096501;28;20573;-69
2022/08/09 06:57:44;;;;;;;1.27;0.90;;;24.60;58.30;;;;;;5096275;28;20402;-69
2022/08/09 07:00:11;;;;;;;0.60;0.60;;;24.40;57.50;;;;;;5096275;28;20492;-69
2022/08/09 07:02:37;;;;;;;0.50;0.40;;;24.10;57.60;;;;;;5096033;28;20649;-68
2022/08/09 07:05:05;;;;;;;0.40;0.40;;;24.00;58.30;;;;;;5096096;28;20454;-70
2022/08/09 07:07:30;;;;;;;0.73;0.70;;;23.80;57.40;;;;;;5095933;28;20406;-69
2022/08/09 07:09:56;;;;;;;0.73;0.73;;;23.70;58.40;;;;;;5095849;28;20933;-69
2022/08/09 07:12:22;;;;;;;0.70;0.70;;;23.40;59.80;;;;;;5095998;28;20177;-68
2022/08/09 07:14:48;;;;;;;0.80;0.80;;;23.20;57.90;;;;;;5095825;28;20196;-69
2022/08/09 07:17:14;;;;;;;0.40;0.40;;;23.40;57.90;;;;;;5096101;28;20501;-67
2022/08/09 07:19:40;;;;;;;0.60;0.60;;;23.60;58.20;;;;;;5095749;28;20407;-69
2022/08/09 07:22:06;;;;;;;0.50;0.50;;;24.00;56.60;;;;;;5095949;28;20829;-68
2022/08/09 07:24:32;;;;;;;0.43;0.43;;;24.90;56.00;;;;;;5095596;28;20212;-70
2022/08/09 07:26:59;;;;;;;1.00;0.80;;;25.50;53.30;;;;;;5095624;28;20401;-68
2022/08/09 07:29:26;;;;;;;0.50;0.50;;;25.00;53.70;;;;;;5095507;28;20425;-69
2022/08/09 07:31:52;;;;;;;0.60;0.60;;;25.10;53.60;;;;;;5095640;28;20400;-70
2022/08/09 07:34:18;;;;;;;0.40;0.40;;;25.70;54.40;;;;;;5095311;28;20472;-68
2022/08/09 07:36:44;;;;;;;0.70;0.70;;;26.30;51.60;;;;;;5095386;28;20509;-69
2022/08/09 07:39:10;;;;;;;0.73;0.73;;;27.20;50.30;;;;;;5095148;28;20644;-69
2022/08/09 07:41:36;;;;;;;0.60;0.60;;;28.20;48.30;;;;;;5095267;28;20464;-69
2022/08/09 07:44:02;;;;;;;0.40;0.40;;;28.60;46.60;;;;;;5095198;28;20434;-70
2022/08/09 07:46:28;;;;;;;0.50;0.50;;;29.40;44.50;;;;;;5095029;28;20226;-69
2022/08/09 07:48:54;;;;;;;0.40;0.40;;;30.00;44.40;;;;;;5095058;28;20411;-70
2022/08/09 07:51:20;;;;;;;1.00;1.00;;;30.60;41.90;;;;;;5095105;28;20399;-69
2022/08/09 07:53:47;;;;;;;0.40;0.40;;;31.40;40.50;;;;;;5095047;28;20947;-69
2022/08/09 07:56:12;;;;;;;0.50;0.50;;;32.10;38.50;;;;;;5094981;28;20189;-70
2022/08/09 07:58:38;;;;;;;1.07;0.70;;;31.90;38.60;;;;;;5094761;28;20407;-70
2022/08/09 08:01:04;;;;;;;0.60;0.60;;;32.40;36.90;;;;;;5095143;28;20169;-70
2022/08/09 08:03:29;;;;;;;0.80;0.77;;;33.10;36.20;;;;;;5076638;28;20188;-70
2022/08/09 08:05:55;;;;;;;0.87;0.87;;;33.20;35.10;;;;;;5094752;28;20562;-70
2022/08/09 08:08:21;;;;;;;0.40;0.40;;;33.50;35.00;;;;;;5094917;28;20180;-70
2022/08/09 08:10:47;;;;;;;0.50;0.50;;;33.40;34.60;;;;;;5094774;28;20180;-70
2022/08/09 08:13:12;;;;;;;0.70;0.60;;;33.90;34.10;;;;;;5094857;28;20746;-68
2022/08/09 08:15:39;;;;;;;1.03;0.90;;;34.60;33.00;;;;;;5094475;28;20208;-67
2022/08/09 08:18:05;;;;;;;0.60;0.60;;;34.20;33.90;;;;;;5094674;28;20583;-67
2022/08/09 08:20:31;;;;;;;0.70;0.70;;;33.30;33.60;;;;;;5095176;28;20509;-68
2022/08/09 08:22:58;;;;;;;0.63;0.63;;;33.00;33.70;;;;;;5094390;28;20651;-68
2022/08/09 08:25:24;;;;;;;0.80;0.80;;;32.60;34.50;;;;;;5094413;28;20427;-67
2022/08/09 08:27:49;;;;;;;0.67;0.67;;;32.00;35.20;;;;;;5094276;28;20425;-67
2022/08/09 08:30:17;;;;;;;0.60;0.60;;;32.10;34.80;;;;;;5094420;28;20181;-68
2022/08/09 08:32:43;;;;;;;0.47;0.47;;;32.00;35.80;;;;;;5094438;28;20177;-68
2022/08/09 08:35:09;;;;;;;0.70;0.70;;;31.70;36.20;;;;;;5075825;28;20462;-68
2022/08/09 08:37:34;;;;;;;0.50;0.50;;;31.50;37.50;;;;;;5076487;28;20414;-67
2022/08/09 08:40:01;;;;;;;0.50;0.50;;;32.40;36.40;;;;;;5094277;28;20204;-68
2022/08/09 08:42:28;;;;;;;0.50;0.50;;;33.40;35.10;;;;;;5094337;28;20160;-69
2022/08/09 08:44:57;;;;;;;0.67;0.67;;;34.20;33.40;;;;;;5094147;28;20529;-68
2022/08/09 08:47:25;;;;;;;0.80;0.77;;;34.30;33.00;;;;;;5094033;28;20399;-68
2022/08/09 08:49:52;;;;;;;0.90;0.80;;;33.50;32.20;;;;;;5093842;28;20421;-68
2022/08/09 08:52:20;;;;;;;0.40;0.40;;;32.90;33.70;;;;;;5094116;28;20403;-69
2022/08/09 08:54:46;;;;;;;0.60;0.60;;;32.60;35.10;;;;;;5093890;28;20520;-68
2022/08/09 08:57:11;;;;;;;0.43;0.43;;;33.00;34.50;;;;;;5093610;28;20414;-69
2022/08/09 08:59:37;;;;;;;0.80;0.57;;;33.10;34.30;;;;;;5093886;28;20176;-67
2022/08/09 09:02:06;;;;;;;1.20;1.10;;;32.40;34.30;;;;;;5093841;28;20176;-68
2022/08/09 09:04:32;;;;;;;0.50;0.50;;;31.90;35.50;;;;;;5093785;28;20204;-68
2022/08/09 09:07:06;;;;;;;0.70;0.70;;;32.90;36.30;;;;;;5093853;28;20419;-69
2022/08/09 09:09:33;;;;;;;0.57;0.57;;;34.10;33.70;;;;;;5093789;28;20468;-69
2022/08/09 09:11:59;;;;;;;0.40;0.40;;;33.20;33.50;;;;;;5093885;28;20502;-69
2022/08/09 09:14:26;;;;;;;0.80;0.80;;;33.40;33.90;;;;;;5093778;28;20502;-69
2022/08/09 09:16:52;;;;;;;0.60;0.60;;;33.90;34.90;;;;;;5094070;28;20466;-68
2022/08/09 09:19:18;;;;;;;0.77;0.77;;;33.60;33.00;;;;;;5093526;28;20431;-68
2022/08/09 09:22:07;;;;;;;1.17;1.07;;;33.60;33.10;;;;;;5093646;28;20165;-69
2022/08/09 09:24:38;;;;;;;0.53;0.53;;;34.40;33.70;;;;;;5093798;28;20234;-69
2022/08/09 09:27:05;;;;;;;0.70;0.70;;;34.90;31.70;;;;;;5093507;28;20395;-68
2022/08/09 09:29:33;;;;;;;1.13;0.67;;;35.00;32.00;;;;;;5093388;28;20488;-69
2022/08/09 09:31:59;;;;;;;1.30;1.10;;;34.20;32.60;;;;;;5090864;28;20927;-68
2022/08/09 09:34:25;;;;;;;0.40;0.40;;;33.80;34.80;;;;;;5090297;28;20450;-68
2022/08/09 09:36:51;;;;;;;0.73;0.73;;;34.00;32.30;;;;;;5072182;28;20496;-69
2022/08/09 09:39:17;;;;;;;0.63;0.63;;;34.20;33.20;;;;;;5090301;28;20490;-69
2022/08/09 09:41:43;;;;;;;0.50;0.50;;;34.90;31.50;;;;;;5093479;28;20170;-67
2022/08/09 09:44:09;;;;;;;0.60;0.60;;;34.90;30.60;;;;;;5093433;28;20579;-68
2022/08/09 09:46:37;;;;;;;0.77;0.60;;;34.80;31.20;;;;;;5093340;28;20442;-68
2022/08/09 09:49:05;;;;;;;1.07;0.70;;;34.80;30.60;;;;;;5093364;28;20203;-69
2022/08/09 09:51:33;;;;;;;0.60;0.60;;;34.30;29.80;;;;;;5093482;28;20913;-69
2022/08/09 09:54:17;;;;;;;0.70;0.70;;;34.10;30.70;;;;;;5093382;28;20953;-69
2022/08/09 09:56:47;;;;;;;0.63;0.63;;;33.90;31.50;;;;;;5093344;28;20456;-68
2022/08/09 09:59:18;;;;;;;0.50;0.50;;;34.30;29.40;;;;;;5093006;28;20403;-68
2022/08/09 10:01:44;;;;;;;0.57;0.50;;;34.60;30.50;;;;;;5093413;28;20884;-67
2022/08/09 10:04:17;;;;;;;0.70;0.70;;;34.00;29.80;;;;;;5093298;28;20430;-68
2022/08/09 10:06:45;;;;;;;0.43;0.43;;;33.70;32.10;;;;;;5093624;28;20184;-69
2022/08/09 10:09:13;;;;;;;0.80;0.80;;;34.30;31.00;;;;;;5094555;28;20403;-68
2022/08/09 10:11:39;;;;;;;0.50;0.50;;;33.90;29.90;;;;;;5097163;28;20398;-69
2022/08/09 10:14:05;;;;;;;0.83;0.83;;;33.60;30.30;;;;;;5097015;28;20969;-68
2022/08/09 10:16:35;;;;;;;0.60;0.60;;;33.10;30.70;;;;;;5096962;28;20837;-68
2022/08/09 10:19:06;;;;;;;0.77;0.60;;;32.90;30.60;;;;;;5096748;28;20403;-69
2022/08/09 10:21:33;;;;;;;0.57;0.57;;;32.70;30.50;;;;;;5097125;28;20391;-68
2022/08/09 10:24:01;;;;;;;0.63;0.50;;;32.20;32.00;;;;;;5096869;28;20441;-69
2022/08/09 10:26:28;;;;;;;0.73;0.73;;;32.30;31.70;;;;;;5096751;28;20437;-67
2022/08/09 10:28:55;;;;;;;0.80;0.80;;;32.40;31.70;;;;;;5096726;28;20409;-67
2022/08/09 10:31:21;;;;;;;0.50;0.50;;;32.80;32.30;;;;;;5096878;28;20438;-67
2022/08/09 10:33:47;;;;;;;1.27;1.00;;;32.80;31.40;;;;;;5096791;28;20953;-68
2022/08/09 10:36:14;;;;;;;0.40;0.40;;;32.50;31.90;;;;;;5096624;28;20479;-67
2022/08/09 10:38:43;;;;;;;0.50;0.50;;;31.70;31.60;;;;;;5096558;28;20204;-69
2022/08/09 10:41:09;;;;;;;0.67;0.67;;;31.10;33.90;;;;;;5096744;28;20749;-67
2022/08/09 10:43:36;;;;;;;0.50;0.50;;;31.30;31.70;;;;;;5096679;28;20403;-68
2022/08/09 10:46:20;;;;;;;1.00;1.00;;;31.60;31.80;;;;;;5096361;28;20427;-69
2022/08/09 10:48:57;;;;;;;0.93;0.93;;;31.90;31.10;;;;;;5096288;28;20403;-67
2022/08/09 10:51:53;;;;;;;0.50;0.50;;;31.40;32.40;;;;;;5096497;28;20399;-67
2022/08/09 10:54:24;;;;;;;0.50;0.50;;;30.90;32.10;;;;;;5096448;28;20454;-68
2022/08/09 10:57:15;;;;;;;0.60;0.60;;;30.80;33.40;;;;;;5096199;28;21035;-67
2022/08/09 10:59:42;;;;;;;0.50;0.50;;;30.20;34.10;;;;;;5096234;28;20737;-69
2022/08/09 11:02:14;;;;;;;0.40;0.40;;;30.40;33.10;;;;;;5096231;28;20399;-69
2022/08/09 11:04:40;;;;;;;0.40;0.40;;;30.10;34.70;;;;;;5096200;28;20932;-67
2022/08/09 11:07:05;;;;;;;0.43;0.43;;;30.30;33.00;;;;;;5096206;28;20406;-68
2022/08/09 11:09:37;;;;;;;0.50;0.50;;;30.50;33.80;;;;;;5095913;28;20248;-67
2022/08/09 11:12:16;;;;;;;0.50;0.50;;;30.10;34.00;;;;;;5077891;28;20322;-69
2022/08/09 11:14:47;;;;;;;1.20;0.80;;;30.00;35.90;;;;;;5095840;28;20447;-68
2022/08/09 11:17:13;;;;;;;0.70;0.67;;;29.70;34.30;;;;;;5095830;28;20387;-68
2022/08/09 11:19:53;;;;;;;0.60;0.60;;;29.50;33.70;;;;;;5095252;28;20406;-67
2022/08/09 11:22:39;;;;;;;0.70;0.50;;;29.60;36.70;;;;;;5077664;28;20617;-68
2022/08/09 11:25:08;;;;;;;0.60;0.60;;;29.40;35.70;;;;;;5095839;28;20423;-68
2022/08/09 11:27:40;;;;;;;0.90;0.57;;;29.30;37.10;;;;;;5095599;28;20407;-69
2022/08/09 11:30:11;;;;;;;1.63;0.67;;;29.20;36.80;;;;;;5095634;28;20407;-68
2022/08/09 11:32:50;;;;;;;0.63;0.63;;;29.40;35.70;;;;;;5095769;28;20489;-67
2022/08/09 11:35:27;;;;;;;0.53;0.50;;;29.40;35.40;;;;;;5095620;28;20508;-68
2022/08/09 11:37:55;;;;;;;0.70;0.70;;;29.40;35.20;;;;;;5095299;28;20429;-68
2022/08/09 11:40:31;;;;;;;0.50;0.50;;;29.30;35.30;;;;;;5095584;28;20486;-67
2022/08/09 11:42:59;;;;;;;0.50;0.50;;;29.30;35.10;;;;;;5095375;28;20394;-68
2022/08/09 11:45:31;;;;;;;0.50;0.50;;;29.00;33.90;;;;;;5095273;28;20434;-69
2022/08/09 11:47:59;;;;;;;0.70;0.40;;;28.70;35.10;;;;;;5095021;28;20422;-69
2022/08/09 11:50:25;;;;;;;0.70;0.70;;;28.50;35.00;;;;;;5077176;28;20444;-68
2022/08/09 11:53:01;;;;;;;0.50;0.50;;;28.40;34.80;;;;;;5095249;28;20418;-69
2022/08/09 11:55:35;;;;;;;0.40;0.40;;;28.20;34.90;;;;;;5095076;28;20462;-68
2022/08/09 11:58:22;;;;;;;0.40;0.40;;;28.20;35.50;;;;;;5094956;28;20486;-67
2022/08/09 12:01:02;;;;;;;0.63;0.60;;;28.30;34.20;;;;;;5094883;28;20736;-67
2022/08/09 12:03:28;;;;;;;0.60;0.60;;;28.50;33.50;;;;;;5094872;28;20513;-68
2022/08/09 12:05:56;;;;;;;0.40;0.40;;;28.20;34.50;;;;;;5094789;28;20427;-68
2022/08/09 12:08:24;;;;;;;0.60;0.60;;;28.00;36.30;;;;;;5094663;28;20404;-67
2022/08/09 12:10:55;;;;;;;0.40;0.40;;;28.00;37.10;;;;;;5076681;28;20407;-68
2022/08/09 12:13:32;;;;;;;0.50;0.50;;;27.90;35.00;;;;;;5094926;28;20464;-68
2022/08/09 12:15:59;;;;;;;0.90;0.90;;;28.00;35.70;;;;;;5094785;28;20941;-68
2022/08/09 12:18:26;;;;;;;0.40;0.40;;;27.90;35.10;;;;;;5094506;28;20395;-68
2022/08/09 12:20:51;;;;;;;0.60;0.60;;;27.90;37.50;;;;;;5076581;28;20762;-69
2022/08/09 12:23:17;;;;;;;0.50;0.50;;;28.00;36.70;;;;;;5094689;28;20399;-68
2022/08/09 12:25:47;;;;;;;0.77;0.77;;;28.10;37.50;;;;;;5094626;28;20199;-67
2022/08/09 12:28:17;;;;;;;0.40;0.40;;;28.20;37.10;;;;;;5093654;28;20399;-68
2022/08/09 12:30:43;;;;;;;0.40;0.40;;;28.10;36.50;;;;;;5094540;28;20399;-68
2022/08/09 12:33:10;;;;;;;0.50;0.50;;;27.90;35.60;;;;;;5094084;28;20883;-67
2022/08/09 12:35:37;;;;;;;1.00;0.63;;;27.70;36.60;;;;;;5094166;28;20200;-68
2022/08/09 12:38:28;;;;;;;0.40;0.40;;;27.50;37.80;;;;;;5094079;28;20403;-68
2022/08/09 12:40:54;;;;;;;0.40;0.40;;;27.70;36.70;;;;;;5094745;28;20540;-67
2022/08/09 12:43:23;;;;;;;0.50;0.40;;;27.90;38.80;;;;;;5094293;28;20395;-68
2022/08/09 12:45:50;;;;;;;0.50;0.50;;;28.10;36.20;;;;;;5094151;28;20524;-68
2022/08/09 12:48:17;;;;;;;0.50;0.50;;;28.20;35.70;;;;;;5094013;28;20411;-69
2022/08/09 12:50:43;;;;;;;0.50;0.50;;;28.20;36.40;;;;;;5094092;28;20798;-69
2022/08/09 12:53:29;;;;;;;0.60;0.50;;;28.10;36.00;;;;;;5094192;28;20410;-69
2022/08/09 12:56:17;;;;;;;0.53;0.47;;;28.10;36.90;;;;;;5093906;28;20422;-68